Vereeniging, South Africa
Current Conditions -  °F | °C
As of 12:30 PM on Tuesday 21 Oct 2014 (Local Time) from FAOR Reporting Station
Clear Clear  
Wind Chill: 77°   Ceiling: Unl
Heat Index: 78°   Visibility: 6mi
Dew Point: 41°   Wind: 15mph
Humidity: 28%   Direction: 330°NNW
Pressure: 30.27"   Gusts: NA
Location:  26.65°S, 27.96°E
Report Text: FAOR 211030Z 33013KT 290V360 CAVOK 25/05 Q1025 NOSIG
Loading
Personal Weather Stations






























Interactive Weather Map
Tropical Storm Tracking
New forecast layout! Learn more

10-Day Weather Forecast

Advertisements
Track Severe Weather on mobile